Time;durP1;ratioP1;P1;durP2;ratioP2;P2;SDS_P1;SDS_P2;PMS_P1;PMS_P2;Temp;Humidity;BMP_temperature;BMP_pressure;BME280_temperature;BME280_humidity;BME280_pressure;Samples;Min_cycle;Max_cycle;Signal;HPM_P1;HPM_P2
2022/03/23 00:02:27;;;;;;;44.83;18.13;;;;;;;4.87;38.66;102194.57;123149;1103;104300;-79
2022/03/23 00:04:56;;;;;;;44.13;19.23;;;;;;;4.78;38.81;102183.38;123413;1099;108170;-78
2022/03/23 00:07:45;;;;;;;43.27;19.60;;;;;;;4.70;38.37;102192.22;123511;1099;105495;-79
2022/03/23 00:10:29;;;;;;;39.43;17.03;;;;;;;4.60;38.67;102186.22;123139;1102;104269;-79
2022/03/23 00:12:59;;;;;;;40.77;17.37;;;;;;;4.46;38.95;102190.22;123517;1102;104559;-79
2022/03/23 00:18:48;;;;;;;39.30;16.97;;;;;;;4.19;38.75;102183.53;123412;1102;104434;-78
2022/03/23 00:30:24;;;;;;;32.00;14.43;;;;;;;3.97;39.43;102178.08;123259;1102;104437;-79
2022/03/23 00:33:07;;;;;;;37.17;15.50;;;;;;;3.99;39.56;102178.22;123056;1102;104743;-79
2022/03/23 00:35:36;;;;;;;35.20;14.93;;;;;;;4.03;38.98;102181.23;123039;1102;104357;-78
2022/03/23 00:47:10;;;;;;;39.67;15.33;;;;;;;3.95;40.32;102167.56;123138;1102;104399;-79
2022/03/23 00:50:01;;;;;;;36.90;15.15;;;;;;;3.84;40.67;102162.20;123107;1102;104433;-79
2022/03/23 00:55:42;;;;;;;36.87;15.43;;;;;;;3.58;40.70;102159.09;123129;1102;104733;-79
2022/03/23 00:58:31;;;;;;;34.97;15.90;;;;;;;3.49;41.00;102165.11;123236;1102;104409;-79
2022/03/23 01:01:13;;;;;;;38.03;15.50;;;;;;;3.40;41.42;102155.73;123113;1102;104457;-79
2022/03/23 01:03:42;;;;;;;38.87;16.63;;;;;;;3.34;41.29;102157.77;123589;1102;104418;-79
2022/03/23 01:06:26;;;;;;;44.23;16.07;;;;;;;3.26;41.86;102158.76;123639;1099;113751;-79
2022/03/23 01:11:52;;;;;;;34.23;14.73;;;;;;;3.10;41.72;102160.70;123756;1099;104277;-79
2022/03/23 01:17:56;;;;;;;42.45;18.05;;;;;;;2.93;42.01;102159.13;123607;1102;104354;-78
2022/03/23 01:20:36;;;;;;;42.23;17.93;;;;;;;2.84;42.29;102160.11;123441;1102;104405;-78
2022/03/23 01:23:26;;;;;;;45.37;17.70;;;;;;;2.78;42.04;102156.94;123693;1099;104345;-79
2022/03/23 01:28:53;;;;;;;41.57;19.13;;;;;;;2.65;42.21;102164.33;123588;1099;104374;-79
2022/03/23 01:34:32;;;;;;;38.07;18.83;;;;;;;2.56;42.74;102159.20;123420;1099;104428;-79
2022/03/23 01:37:04;;;;;;;41.93;18.03;;;;;;;2.60;42.40;102162.98;123455;1102;104354;-78
2022/03/23 01:39:57;;;;;;;38.30;16.87;;;;;;;2.64;42.42;102166.02;123392;1102;104459;-80
2022/03/23 01:43:00;;;;;;;39.85;17.50;;;;;;;2.62;42.34;102166.66;123044;1102;104586;-79
2022/03/23 01:48:13;;;;;;;37.93;15.53;;;;;;;2.48;43.04;102162.77;123282;1102;104408;-78
2022/03/23 01:50:49;;;;;;;40.77;16.13;;;;;;;2.42;43.81;102163.08;123590;1102;104386;-78
2022/03/23 01:56:39;;;;;;;39.83;16.40;;;;;;;2.36;43.14;102164.19;123471;1099;104476;-79
2022/03/23 01:59:41;;;;;;;36.50;16.20;;;;;;;2.34;43.40;102166.63;123511;1099;104380;-79
2022/03/23 02:02:29;;;;;;;41.80;17.03;;;;;;;2.34;43.33;102166.63;123599;1102;104432;-79
2022/03/23 02:05:17;;;;;;;39.03;17.00;;;;;;;2.43;43.14;102167.51;123568;1099;104350;-80
2022/03/23 02:08:28;;;;;;;35.30;16.15;;;;;;;2.51;42.81;102161.36;123772;1099;119156;-79
2022/03/23 02:17:29;;;;;;;42.87;16.77;;;;;;;2.50;43.49;102153.44;123580;1102;104427;-79
2022/03/23 02:23:54;;;;;;;59.93;22.53;;;;;;;2.46;43.11;102156.50;123556;1102;104576;-78
2022/03/23 02:26:58;;;;;;;40.20;17.80;;;;;;;2.41;43.50;102156.06;123188;1102;104344;-79
2022/03/23 02:30:08;;;;;;;39.40;16.77;;;;;;;2.37;44.04;102161.74;123557;1102;104428;-78
2022/03/23 02:35:49;;;;;;;39.17;16.17;;;;;;;2.19;44.13;102152.21;123041;1105;104444;-79
2022/03/23 02:38:19;;;;;;;41.70;19.30;;;;;;;2.12;44.42;102153.28;123072;1105;104562;-78
2022/03/23 02:41:08;;;;;;;45.07;20.73;;;;;;;2.04;44.04;102157.75;123123;1105;104377;-78
2022/03/23 02:47:01;;;;;;;40.30;17.83;;;;;;;1.81;44.40;102165.87;123176;1105;104450;-79
2022/03/23 02:49:45;;;;;;;40.10;17.57;;;;;;;1.69;44.54;102167.27;122780;1105;104473;-78
2022/03/23 02:52:31;;;;;;;41.03;16.37;;;;;;;1.60;45.00;102159.50;123163;1105;104559;-79
2022/03/23 03:02:16;;;;;;;34.20;15.17;;;;;;;1.50;45.87;102167.13;123409;1102;104309;-79
2022/03/23 03:04:46;;;;;;;40.13;16.60;;;;;;;1.43;46.41;102157.83;123310;1102;104458;-78
2022/03/23 03:07:14;;;;;;;34.33;15.67;;;;;;;1.36;46.54;102153.73;123278;1097;104553;-78
2022/03/23 03:10:02;;;;;;;37.83;15.50;;;;;;;1.32;46.81;102161.04;123597;1102;104428;-79
2022/03/23 03:15:35;;;;;;;35.77;15.17;;;;;;;1.15;47.40;102157.67;123563;1102;104348;-79
2022/03/23 03:24:20;;;;;;;35.40;15.13;;;;;;;0.97;47.66;102161.93;123408;1101;104434;-79
2022/03/23 03:39:04;;;;;;;36.93;14.90;;;;;;;0.79;49.21;102154.90;123433;1102;104456;-79
2022/03/23 03:44:32;;;;;;;33.83;15.33;;;;;;;0.73;48.48;102156.86;123510;1101;104495;-79
2022/03/23 03:50:03;;;;;;;38.57;14.90;;;;;;;0.71;48.25;102156.70;123059;1102;105047;-78
2022/03/23 03:52:32;;;;;;;36.10;14.40;;;;;;;0.71;49.07;102159.28;123084;1102;104310;-79
2022/03/23 03:55:19;;;;;;;36.50;14.60;;;;;;;0.70;49.28;102157.45;123239;1102;104236;-79
2022/03/23 03:57:53;;;;;;;34.40;14.00;;;;;;;0.71;48.67;102161.87;123135;1105;104408;-79
2022/03/23 04:03:28;;;;;;;38.67;15.57;;;;;;;0.70;48.37;102158.38;123356;1101;104463;-79
2022/03/23 04:11:48;;;;;;;38.47;16.77;;;;;;;0.73;48.31;102154.27;123189;1102;104307;-78
2022/03/23 04:14:34;;;;;;;39.17;15.70;;;;;;;0.74;48.25;102162.19;123082;1102;104242;-80
2022/03/23 04:17:04;;;;;;;38.80;15.33;;;;;;;0.76;48.50;102164.92;123379;1102;104354;-79
2022/03/23 04:19:36;;;;;;;38.87;15.97;;;;;;;0.76;48.33;102164.92;123390;1102;104437;-78
2022/03/23 04:25:02;;;;;;;36.27;15.33;;;;;;;0.83;48.70;102162.22;123373;1102;104245;-78
2022/03/23 04:28:09;;;;;;;36.53;15.23;;;;;;;0.85;48.80;102158.10;123168;1102;104976;-78
2022/03/23 04:33:26;;;;;;;32.20;14.13;;;;;;;0.96;48.52;102161.77;123434;1102;104428;-79
2022/03/23 04:35:57;;;;;;;34.13;14.30;;;;;;;1.04;48.28;102153.11;123700;1102;104370;-79
2022/03/23 04:41:24;;;;;;;40.17;14.97;;;;;;;1.07;48.78;102159.48;123462;1102;104664;-79
2022/03/23 04:43:59;;;;;;;32.90;14.03;;;;;;;1.04;49.11;102156.63;123501;1102;104392;-79
2022/03/23 04:46:28;;;;;;;29.23;14.07;;;;;;;1.02;48.76;102159.80;123582;1102;104427;-79
2022/03/23 04:49:03;;;;;;;42.00;16.07;;;;;;;0.99;48.34;102156.91;123691;1102;104430;-79
2022/03/23 04:51:35;;;;;;;43.75;15.40;;;;;;;1.00;48.84;102156.16;123711;1102;104553;-80
2022/03/23 04:57:24;;;;;;;35.53;15.40;;;;;;;1.03;49.00;102157.38;124097;1099;104344;-79
2022/03/23 05:00:13;;;;;;;38.20;14.53;;;;;;;1.07;48.93;102156.00;123802;1099;104376;-80
2022/03/23 05:05:57;;;;;;;32.40;13.67;;;;;;;1.12;49.09;102161.63;123861;1098;104358;-80
2022/03/23 05:08:36;;;;;;;37.93;14.73;;;;;;;1.10;49.21;102163.16;124002;1099;104412;-79
2022/03/23 05:13:52;;;;;;;35.00;14.20;;;;;;;1.10;50.05;102165.75;124074;1099;104380;-80
2022/03/23 05:16:24;;;;;;;34.90;14.43;;;;;;;1.15;49.55;102162.84;123750;1099;104325;-80
2022/03/23 05:18:53;;;;;;;32.80;14.70;;;;;;;1.24;49.98;102155.10;124350;1099;104248;-80
2022/03/23 05:21:22;;;;;;;37.10;13.60;;;;;;;1.30;49.89;102160.89;123753;1099;104268;-78
2022/03/23 05:23:57;;;;;;;35.73;14.47;;;;;;;1.33;49.72;102163.78;123851;1099;104296;-78
2022/03/23 05:26:40;;;;;;;35.07;13.57;;;;;;;1.37;49.95;102163.33;123977;1099;104698;-79
2022/03/23 05:29:11;;;;;;;35.20;14.67;;;;;;;1.47;50.04;102166.83;124336;1099;104267;-80
2022/03/23 05:31:40;;;;;;;35.00;14.00;;;;;;;1.60;49.90;102160.40;124505;1099;104246;-80
2022/03/23 05:34:11;;;;;;;32.60;14.30;;;;;;;1.74;49.85;102161.75;123772;1099;104242;-79
2022/03/23 05:36:41;;;;;;;36.37;13.67;;;;;;;1.87;50.02;102160.36;123984;1099;104647;-79
2022/03/23 05:39:11;;;;;;;37.13;14.80;;;;;;;1.99;50.44;102161.55;123642;1099;104377;-79
2022/03/23 05:42:03;;;;;;;33.83;13.83;;;;;;;2.03;50.44;102155.91;123578;1099;104284;-79
2022/03/23 05:44:52;;;;;;;30.90;13.50;;;;;;;2.06;50.60;102152.72;123793;1099;104340;-80
2022/03/23 05:47:46;;;;;;;32.90;13.17;;;;;;;2.09;51.29;102150.42;123620;1099;104350;-79
2022/03/23 05:50:28;;;;;;;36.67;14.47;;;;;;;2.16;51.15;102148.54;124039;1099;104287;-79
2022/03/23 05:53:01;;;;;;;36.77;14.00;;;;;;;2.25;50.46;102152.80;123343;1099;108666;-77
2022/03/23 05:55:32;;;;;;;31.63;12.17;;;;;;;2.29;50.36;102149.72;123392;1099;104277;-78
2022/03/23 05:58:12;;;;;;;31.67;13.37;;;;;;;2.37;50.91;102148.78;123775;1099;104338;-78
2022/03/23 06:00:42;;;;;;;35.63;13.40;;;;;;;2.46;51.01;102152.25;124016;1099;104301;-79
2022/03/23 06:03:12;;;;;;;30.43;12.07;;;;;;;2.57;50.82;102155.86;124206;1098;118325;-79
2022/03/23 06:05:43;;;;;;;30.73;11.50;;;;;;;2.66;50.62;102151.51;124187;1099;104347;-79
2022/03/23 06:08:13;;;;;;;30.80;12.33;;;;;;;2.77;49.83;102144.73;124094;1099;104268;-79
2022/03/23 06:10:43;;;;;;;31.93;12.23;;;;;;;2.92;50.37;102152.14;124518;1099;104379;-79
2022/03/23 06:13:14;;;;;;;32.63;12.93;;;;;;;3.04;50.57;102148.09;124522;1098;104233;-80
2022/03/23 06:15:43;;;;;;;34.57;12.93;;;;;;;3.14;50.71;102150.75;124142;1099;104274;-80
2022/03/23 06:18:21;;;;;;;29.33;11.83;;;;;;;3.27;49.89;102149.28;124340;1099;104239;-79
2022/03/23 06:20:51;;;;;;;29.10;12.23;;;;;;;3.42;50.29;102155.87;124202;1099;104306;-79
2022/03/23 06:23:23;;;;;;;31.93;12.20;;;;;;;3.57;50.65;102152.06;123914;1099;104246;-78
2022/03/23 06:25:52;;;;;;;31.30;11.60;;;;;;;3.72;50.55;102147.33;123733;1099;104349;-78
2022/03/23 06:28:23;;;;;;;27.23;11.03;;;;;;;3.85;49.82;102146.76;123578;1099;104245;-78
2022/03/23 06:30:54;;;;;;;28.43;10.33;;;;;;;3.95;49.97;102143.28;123721;1099;104438;-78
2022/03/23 06:33:29;;;;;;;27.97;10.53;;;;;;;4.07;49.65;102146.06;123330;1099;104348;-77
2022/03/23 06:35:58;;;;;;;29.30;11.53;;;;;;;4.19;49.27;102143.61;123337;1099;104316;-78
2022/03/23 06:38:28;;;;;;;39.07;13.33;;;;;;;4.32;49.85;102144.83;123728;1102;104402;-79
2022/03/23 06:41:00;;;;;;;41.57;14.60;;;;;;;4.49;49.87;102142.80;123871;1102;104437;-79
2022/03/23 06:43:29;;;;;;;35.60;14.40;;;;;;;4.63;49.31;102139.68;123893;1099;104424;-77
2022/03/23 06:45:58;;;;;;;31.47;12.87;;;;;;;4.79;49.40;102144.50;124100;1099;104241;-79
2022/03/23 06:48:28;;;;;;;35.27;12.80;;;;;;;4.94;49.45;102139.70;123794;1102;104211;-79
2022/03/23 06:50:57;;;;;;;29.97;11.50;;;;;;;5.10;48.94;102130.59;124103;1099;104357;-78
2022/03/23 06:53:26;;;;;;;32.53;11.17;;;;;;;5.26;48.92;102133.66;123780;1099;104336;-78
2022/03/23 06:55:55;;;;;;;27.73;10.80;;;;;;;5.44;48.50;102134.30;123672;1099;104652;-79
2022/03/23 06:58:25;;;;;;;26.43;9.33;;;;;;;5.62;48.67;102120.95;123629;1102;104391;-79
2022/03/23 07:01:04;;;;;;;25.23;9.90;;;;;;;5.82;48.27;102127.79;123874;1099;104344;-80
2022/03/23 07:03:35;;;;;;;24.20;10.07;;;;;;;6.01;48.49;102120.68;124194;1099;104341;-80
2022/03/23 07:06:04;;;;;;;25.60;9.33;;;;;;;6.20;48.03;102112.66;124421;1099;104393;-80
2022/03/23 07:11:25;;;;;;;23.77;8.70;;;;;;;6.56;47.14;102116.33;124657;1102;104367;-80
2022/03/23 07:13:55;;;;;;;24.37;8.53;;;;;;;6.73;47.13;102114.09;124655;1102;104357;-80
2022/03/23 07:16:25;;;;;;;23.00;8.60;;;;;;;6.90;46.89;102110.17;124094;1102;104404;-80
2022/03/23 07:18:55;;;;;;;24.10;8.63;;;;;;;7.10;46.55;102117.80;124203;1102;104357;-81
2022/03/23 07:21:26;;;;;;;25.50;9.23;;;;;;;7.30;46.42;102123.62;124043;1102;104153;-79
2022/03/23 07:23:56;;;;;;;23.37;9.53;;;;;;;7.49;45.92;102116.34;124193;1101;105428;-80
2022/03/23 07:26:26;;;;;;;27.50;9.87;;;;;;;7.65;46.14;102109.64;124439;1102;104408;-82
2022/03/23 07:29:03;;;;;;;25.27;9.43;;;;;;;7.78;45.89;102109.76;124034;1102;104245;-83
2022/03/23 07:31:41;;;;;;;28.43;10.67;;;;;;;7.97;45.83;102105.86;124295;1102;104536;-80
2022/03/23 07:34:18;;;;;;;26.63;9.73;;;;;;;8.14;45.70;102109.69;124627;1102;104176;-80
2022/03/23 07:36:53;;;;;;;26.53;9.37;;;;;;;8.32;45.45;102105.77;124260;1099;104271;-80
2022/03/23 07:39:25;;;;;;;34.60;11.47;;;;;;;8.49;45.37;102106.05;124022;1099;104650;-80
2022/03/23 07:41:59;;;;;;;26.00;9.80;;;;;;;8.62;45.18;102107.02;124087;1099;104489;-82
2022/03/23 07:44:32;;;;;;;27.90;10.17;;;;;;;8.75;44.97;102105.25;123548;1099;104281;-81
2022/03/23 07:47:20;;;;;;;26.77;10.30;;;;;;;8.86;45.64;102103.36;124080;1099;104358;-83
2022/03/23 07:49:58;;;;;;;27.50;10.87;;;;;;;9.02;44.99;102090.49;124332;1098;104261;-80
2022/03/23 07:52:31;;;;;;;24.33;10.40;;;;;;;9.18;45.16;102093.34;123894;1099;104392;-81
2022/03/23 07:55:04;;;;;;;31.27;10.33;;;;;;;9.31;45.06;102094.17;124220;1099;104249;-80
2022/03/23 07:57:40;;;;;;;30.17;10.07;;;;;;;9.46;44.87;102094.28;124403;1098;104373;-81
2022/03/23 08:00:21;;;;;;;44.13;10.43;;;;;;;9.66;44.65;102083.38;124852;1099;104334;-79
2022/03/23 08:02:51;;;;;;;27.65;8.70;;;;;;;9.85;43.79;102088.09;124558;1099;104370;-80
2022/03/23 08:05:37;;;;;;;30.97;10.30;;;;;;;10.00;44.26;102079.37;124317;1099;104377;-80
2022/03/23 08:08:10;;;;;;;24.00;8.17;;;;;;;10.15;43.79;102080.34;123949;1099;104425;-78
2022/03/23 08:10:55;;;;;;;24.80;7.47;;;;;;;10.24;43.68;102072.15;124406;1099;104190;-82
2022/03/23 08:13:26;;;;;;;20.40;7.53;;;;;;;10.36;43.42;102077.27;124677;1099;104366;-79
2022/03/23 08:16:24;;;;;;;23.67;8.03;;;;;;;10.49;42.92;102069.34;124738;1099;104285;-81
2022/03/23 08:19:16;;;;;;;27.60;8.73;;;;;;;10.60;42.16;102067.37;124374;1099;104377;-82
2022/03/23 08:21:50;;;;;;;26.57;8.97;;;;;;;10.70;42.31;102064.47;124673;1099;104316;-82
2022/03/23 08:24:36;;;;;;;24.33;8.20;;;;;;;10.75;41.76;102062.12;124704;1099;104359;-80
2022/03/23 08:27:21;;;;;;;20.80;7.47;;;;;;;10.79;39.75;102056.25;124521;1098;104239;-79
2022/03/23 08:33:25;;;;;;;19.07;6.77;;;;;;;10.93;39.49;102049.20;125119;1098;104239;-79
2022/03/23 08:35:55;;;;;;;21.70;7.07;;;;;;;11.07;39.60;102045.65;125038;1099;104274;-80
2022/03/23 08:38:48;;;;;;;25.70;6.87;;;;;;;11.19;36.03;102034.95;124225;1102;104445;-79
2022/03/23 08:41:20;;;;;;;20.17;7.00;;;;;;;11.27;38.46;102038.03;124211;1102;104758;-79
2022/03/23 08:44:12;;;;;;;19.67;7.57;;;;;;;11.31;34.22;102037.36;124692;1102;104242;-82
2022/03/23 08:47:19;;;;;;;;;;;;;;;;;;;;;
2022/03/23 08:54:08;;;;;;;12.20;4.33;;;;;;;11.62;34.17;102031.22;124150;1102;104320;-81
2022/03/23 08:57:10;;;;;;;10.98;4.45;;;;;;;11.65;35.54;102021.77;124213;1103;104489;-80
2022/03/23 08:59:53;;;;;;;18.03;5.17;;;;;;;11.76;36.43;102011.84;124287;1102;104482;-80
2022/03/23 09:02:25;;;;;;;16.33;5.03;;;;;;;11.90;36.69;102016.97;124338;1102;104386;-81
2022/03/23 09:05:05;;;;;;;15.25;6.00;;;;;;;12.00;36.30;102009.70;124323;1102;104182;-81
2022/03/23 09:07:43;;;;;;;20.17;6.00;;;;;;;12.07;35.29;102010.03;124380;1100;117806;-81
2022/03/23 09:10:21;;;;;;;14.40;5.20;;;;;;;12.16;35.06;102007.89;124110;1102;104754;-80
2022/03/23 09:13:09;;;;;;;14.57;4.80;;;;;;;12.26;33.47;102001.38;124091;1102;104441;-82
2022/03/23 09:15:47;;;;;;;16.27;5.00;;;;;;;12.21;33.89;101994.12;123791;1102;104383;-80
2022/03/23 09:18:19;;;;;;;13.87;4.80;;;;;;;12.19;32.97;101997.52;123923;1102;104466;-80
2022/03/23 09:21:02;;;;;;;17.03;5.10;;;;;;;12.19;34.30;101987.89;123701;1102;104531;-79
2022/03/23 09:23:44;;;;;;;13.40;5.17;;;;;;;12.27;33.82;101983.03;123594;1100;104313;-79
2022/03/23 09:26:34;;;;;;;15.73;5.10;;;;;;;12.32;32.66;101978.91;124166;1099;104377;-80
2022/03/23 09:29:13;;;;;;;22.13;5.90;;;;;;;12.42;33.62;101972.41;124166;1099;104370;-80
2022/03/23 09:31:45;;;;;;;15.83;5.63;;;;;;;12.44;33.62;101976.02;124433;1099;104380;-80
2022/03/23 09:34:34;;;;;;;12.00;5.10;;;;;;;12.48;33.98;101964.83;125108;1099;104351;-83
2022/03/23 09:40:30;;;;;;;14.53;5.63;;;;;;;12.67;33.68;101948.23;123780;1099;104239;-83
2022/03/23 09:43:20;;;;;;;18.60;5.93;;;;;;;12.79;32.76;101953.19;124189;1099;104316;-80
2022/03/23 09:45:58;;;;;;;16.63;5.90;;;;;;;12.81;32.63;101951.55;124286;1099;104351;-80
2022/03/23 09:48:34;;;;;;;13.67;5.00;;;;;;;12.85;32.10;101937.69;124441;1099;117880;-79
2022/03/23 09:51:15;;;;;;;16.27;5.13;;;;;;;12.97;32.89;101939.14;124095;1099;104319;-80
2022/03/23 09:53:47;;;;;;;17.30;6.00;;;;;;;13.03;33.12;101932.43;123860;1099;104201;-80
2022/03/23 09:56:33;;;;;;;16.30;5.10;;;;;;;13.03;31.83;101939.44;124526;1099;104195;-83
2022/03/23 09:59:38;;;;;;;15.80;5.50;;;;;;;13.03;31.70;101936.81;124041;1099;104233;-82
2022/03/23 10:02:47;;;;;;;13.50;4.70;;;;;;;13.07;31.66;101933.47;124034;1099;104399;-82
2022/03/23 10:05:48;;;;;;;19.53;6.10;;;;;;;13.16;31.16;101918.10;123832;1099;104387;-79
2022/03/23 10:09:04;;;;;;;16.17;6.03;;;;;;;13.30;31.47;101919.65;123978;1098;104294;-81
2022/03/23 10:12:42;;;;;;;17.07;5.60;;;;;;;13.40;30.87;101913.13;124849;1099;104216;-82
2022/03/23 10:16:03;;;;;;;;;;;;;;;;;;;;;
2022/03/23 10:18:53;;;;;;;16.37;5.90;;;;;;;13.51;31.77;101902.16;124580;1102;104428;-79
2022/03/23 10:21:36;;;;;;;14.80;5.83;;;;;;;13.57;32.20;101900.73;124195;1102;104172;-81
2022/03/23 10:24:31;;;;;;;15.85;6.95;;;;;;;13.60;30.13;101892.96;124733;1102;104302;-81
2022/03/23 10:27:24;;;;;;;20.40;7.77;;;;;;;13.59;27.95;101888.50;124217;1102;104351;-79
2022/03/23 10:29:56;;;;;;;;;;;;;;;13.61;27.49;101886.83;124858;1102;104273;-79
2022/03/23 10:32:47;;;;;;;24.67;9.77;;;;;;;13.61;28.48;101881.55;124282;1102;104358;-79
2022/03/23 10:35:36;;;;;;;24.73;9.90;;;;;;;13.61;29.94;101860.45;123993;1102;104380;-79
2022/03/23 10:38:19;;;;;;;20.03;8.17;;;;;;;13.75;28.41;101874.27;123880;1100;104625;-81
2022/03/23 10:40:52;;;;;;;29.10;9.17;;;;;;;13.81;30.02;101866.63;124416;1102;104382;-78
2022/03/23 10:43:24;;;;;;;21.47;9.03;;;;;;;13.84;28.22;101866.76;124585;1102;104347;-80
2022/03/23 10:46:06;;;;;;;19.55;7.00;;;;;;;13.91;29.23;101859.12;124652;1102;104261;-79
2022/03/23 10:48:36;;;;;;;19.77;6.07;;;;;;;13.93;28.56;101861.00;124607;1102;104537;-79
2022/03/23 10:51:12;;;;;;;16.63;6.00;;;;;;;14.02;28.97;101847.28;124458;1102;104223;-77
2022/03/23 10:53:46;;;;;;;19.53;7.20;;;;;;;14.06;29.69;101843.06;124088;1102;104255;-77
2022/03/23 10:56:49;;;;;;;17.83;6.37;;;;;;;14.11;29.40;101836.23;126505;1098;104239;-79
2022/03/23 10:59:27;;;;;;;;;;;;;;;14.15;26.76;101844.34;124536;1099;104337;-78
2022/03/23 11:02:08;;;;;;;15.73;4.83;;;;;;;14.21;28.18;101830.52;123374;1098;104498;-77
2022/03/23 11:05:01;;;;;;;16.80;5.10;;;;;;;14.22;29.07;101826.13;124970;1099;104738;-77
2022/03/23 11:07:35;;;;;;;13.93;4.40;;;;;;;14.20;28.40;101823.42;124520;1099;104373;-78
2022/03/23 11:16:02;;;;;;;13.30;5.10;;;;;;;14.20;28.29;101804.94;124196;1099;103387;-78
2022/03/23 11:18:32;;;;;;;16.20;5.10;;;;;;;14.25;28.19;101798.10;124763;1099;104238;-77
2022/03/23 11:21:02;;;;;;;16.50;5.33;;;;;;;14.34;28.03;101800.23;124533;1099;104236;-76
2022/03/23 11:23:40;;;;;;;14.47;4.93;;;;;;;14.46;28.50;101792.81;124248;1099;104287;-77
2022/03/23 11:26:12;;;;;;;18.37;5.37;;;;;;;14.56;28.60;101788.80;124717;1098;104551;-78
2022/03/23 11:28:45;;;;;;;16.77;5.10;;;;;;;14.64;29.37;101786.49;124395;1099;104360;-78
2022/03/23 11:31:16;;;;;;;13.63;4.07;;;;;;;14.54;26.79;101787.84;124312;1099;104325;-78
2022/03/23 11:34:13;;;;;;;13.27;4.33;;;;;;;14.58;27.48;101776.53;124424;1099;104364;-78
2022/03/23 11:36:43;;;;;;;12.13;4.27;;;;;;;14.69;28.42;101769.07;124367;1099;104216;-78
2022/03/23 11:39:13;;;;;;;8.33;3.60;;;;;;;14.76;28.59;101768.48;124238;1099;104248;-77
2022/03/23 11:41:43;;;;;;;11.73;3.83;;;;;;;14.69;26.99;101759.42;124531;1099;104409;-77
2022/03/23 11:44:15;;;;;;;9.70;3.70;;;;;;;14.74;25.77;101765.78;124355;1099;104166;-76
2022/03/23 11:46:45;;;;;;;13.33;4.00;;;;;;;14.72;26.98;101762.19;123802;1099;104302;-76
2022/03/23 11:49:22;;;;;;;14.87;3.83;;;;;;;14.76;27.11;101743.78;124004;1099;104303;-80
2022/03/23 11:55:42;;;;;;;15.13;4.10;;;;;;;14.80;26.11;101737.78;124334;1099;104389;-80
2022/03/23 11:58:35;;;;;;;11.67;4.23;;;;;;;14.77;26.88;101733.27;124414;1098;104242;-79
2022/03/23 12:01:18;;;;;;;12.53;4.53;;;;;;;14.81;26.99;101731.67;124656;1099;111162;-77
2022/03/23 12:04:04;;;;;;;12.30;4.60;;;;;;;14.82;26.92;101721.16;123943;1099;104370;-79
2022/03/23 12:06:45;;;;;;;11.80;4.10;;;;;;;14.86;27.07;101719.52;124382;1098;104351;-80
2022/03/23 12:09:34;;;;;;;10.05;3.75;;;;;;;14.93;26.83;101716.28;123490;1099;104432;-78
2022/03/23 12:12:26;;;;;;;11.80;3.77;;;;;;;14.98;27.41;101713.80;123928;1099;104235;-78
2022/03/23 12:15:27;;;;;;;12.67;4.37;;;;;;;15.00;26.62;101707.71;123978;1099;104277;-79
2022/03/23 12:18:03;;;;;;;14.47;4.40;;;;;;;15.05;26.52;101694.66;123898;1099;104270;-77
2022/03/23 12:20:37;;;;;;;10.50;4.30;;;;;;;15.03;26.41;101693.72;123691;1099;104265;-79
2022/03/23 12:23:46;;;;;;;9.83;4.67;;;;;;;15.04;26.91;101685.84;124416;1099;104376;-80
2022/03/23 12:26:33;;;;;;;11.45;4.35;;;;;;;15.04;25.73;101682.31;124798;1099;104229;-80
2022/03/23 12:29:25;;;;;;;10.83;4.53;;;;;;;15.01;25.33;101682.20;124131;1099;104258;-82
2022/03/23 12:32:08;;;;;;;10.97;4.37;;;;;;;14.91;26.17;101670.38;124360;1098;104322;-81
2022/03/23 12:34:39;;;;;;;12.53;4.20;;;;;;;14.88;25.57;101671.18;124414;1098;104618;-80
2022/03/23 12:37:13;;;;;;;15.13;4.30;;;;;;;14.86;25.84;101666.67;124574;1099;104325;-79
2022/03/23 12:39:44;;;;;;;13.47;4.77;;;;;;;14.91;26.45;101662.44;124040;1098;104233;-79
2022/03/23 12:42:31;;;;;;;13.53;4.70;;;;;;;14.92;26.25;101654.57;123773;1099;104246;-79
2022/03/23 12:45:24;;;;;;;11.73;4.33;;;;;;;14.93;25.32;101658.13;123944;1099;104261;-79
2022/03/23 12:57:49;;;;;;;13.90;4.80;;;;;;;14.96;23.77;101658.25;124448;1102;104731;-79
2022/03/23 13:01:09;;;;;;;14.97;4.60;;;;;;;14.94;25.70;101635.23;124809;1099;104265;-80
2022/03/23 13:03:54;;;;;;;11.67;4.27;;;;;;;14.92;25.29;101635.19;124569;1098;104352;-81
2022/03/23 13:07:20;;;;;;;14.37;5.20;;;;;;;14.93;25.04;101629.06;125125;1099;104165;-82
2022/03/23 13:13:50;;;;;;;16.03;5.20;;;;;;;14.98;25.17;101623.94;124589;1102;111211;-78
2022/03/23 13:19:29;;;;;;;12.73;4.30;;;;;;;14.94;24.68;101609.70;124125;1105;104568;-82
2022/03/23 13:22:08;;;;;;;13.10;5.50;;;;;;;14.95;24.80;101600.94;125081;1105;102478;-80
2022/03/23 13:24:41;;;;;;;17.77;5.43;;;;;;;15.00;24.67;101609.91;123823;1105;104306;-78
2022/03/23 13:27:25;;;;;;;;;;;;;;;;;;;;;
2022/03/23 13:30:13;;;;;;;10.57;4.87;;;;;;;15.09;25.00;101594.38;123825;1103;104220;-80
2022/03/23 13:32:58;;;;;;;13.63;4.90;;;;;;;15.06;24.72;101588.98;124045;1105;104545;-79
2022/03/23 13:35:51;;;;;;;;;;;;;;;;;;;;;
2022/03/23 13:38:22;;;;;;;13.37;4.33;;;;;;;14.99;24.52;101581.70;123817;1105;104462;-82
2022/03/23 13:44:17;;;;;;;14.43;6.10;;;;;;;14.97;25.30;101570.16;124401;1102;104175;-80
2022/03/23 13:47:25;;;;;;;;;;;;;;;;;;;;;
2022/03/23 13:50:24;;;;;;;12.50;4.80;;;;;;;14.95;23.25;101566.58;124709;1099;104602;-82
2022/03/23 13:53:15;;;;;;;18.90;5.20;;;;;;;15.00;23.82;101559.70;124332;1099;104479;-83
2022/03/23 13:55:52;;;;;;;14.23;4.53;;;;;;;15.03;22.78;101558.91;124826;1099;104226;-81
2022/03/23 13:58:31;;;;;;;11.03;4.60;;;;;;;15.07;23.29;101556.43;124223;1099;104370;-81
2022/03/23 14:01:24;;;;;;;16.07;5.27;;;;;;;15.12;23.23;101548.66;124523;1099;104300;-85
2022/03/23 14:04:02;;;;;;;13.25;5.05;;;;;;;15.17;23.05;101552.34;124899;1099;104507;-81
2022/03/23 14:10:00;;;;;;;13.55;5.10;;;;;;;15.06;24.14;101553.73;124582;1099;104213;-80
2022/03/23 14:12:53;;;;;;;15.23;4.73;;;;;;;15.07;22.91;101540.57;124642;1098;104245;-83
2022/03/23 14:15:44;;;;;;;16.30;4.93;;;;;;;15.10;22.64;101535.39;124313;1099;117856;-81
2022/03/23 14:18:16;;;;;;;14.30;5.13;;;;;;;15.15;22.84;101542.59;124667;1099;104323;-80
2022/03/23 14:20:55;;;;;;;11.90;5.07;;;;;;;15.12;23.65;101531.91;124447;1099;104239;-80
2022/03/23 14:23:28;;;;;;;15.03;4.73;;;;;;;15.08;23.86;101531.80;123789;1099;104297;-80
2022/03/23 14:25:58;;;;;;;11.10;4.25;;;;;;;15.11;23.22;101530.98;124255;1099;104370;-81
2022/03/23 14:28:45;;;;;;;15.55;4.90;;;;;;;15.11;23.37;101520.41;123921;1099;104162;-79
2022/03/23 14:31:34;;;;;;;15.90;4.83;;;;;;;15.07;23.50;101516.78;124137;1099;104309;-79
2022/03/23 14:34:17;;;;;;;18.23;5.60;;;;;;;15.03;23.90;101522.80;124110;1099;104258;-80
2022/03/23 14:37:08;;;;;;;12.10;4.67;;;;;;;15.00;23.51;101506.84;123999;1099;104217;-79
2022/03/23 14:39:45;;;;;;;15.23;4.97;;;;;;;15.02;23.87;101505.17;124508;1099;104216;-81
2022/03/23 14:42:20;;;;;;;17.53;5.00;;;;;;;14.96;24.51;101507.60;123469;1099;104322;-80
2022/03/23 14:44:59;;;;;;;19.40;5.63;;;;;;;14.91;24.48;101503.88;123646;1099;104350;-81
2022/03/23 14:47:52;;;;;;;14.03;5.20;;;;;;;14.91;23.27;101495.95;124083;1099;104235;-78
2022/03/23 14:50:24;;;;;;;15.57;4.93;;;;;;;14.95;24.25;101495.22;123903;1099;104326;-77
2022/03/23 14:52:57;;;;;;;12.60;4.60;;;;;;;14.90;23.82;101494.18;123979;1099;104319;-79
2022/03/23 14:55:30;;;;;;;14.43;5.00;;;;;;;14.86;23.94;101492.27;123816;1099;104375;-79